createdAt,value
2018-07-09T00:00:52.628Z,5.60
2018-07-09T00:03:27.711Z,4.70
2018-07-09T00:06:03.015Z,6.03
2018-07-09T00:08:37.624Z,5.70
2018-07-09T00:11:12.700Z,5.00
2018-07-09T00:13:47.308Z,5.50
2018-07-09T00:16:22.644Z,5.73
2018-07-09T00:18:57.103Z,5.53
2018-07-09T00:21:32.264Z,4.53
2018-07-09T00:24:06.972Z,4.30
2018-07-09T00:26:41.968Z,4.53
2018-07-09T00:29:16.608Z,5.03
2018-07-09T00:31:51.543Z,5.13
2018-07-09T00:34:26.285Z,4.77
2018-07-09T00:37:01.092Z,5.07
2018-07-09T00:39:35.995Z,5.43
2018-07-09T00:42:11.275Z,4.80
2018-07-09T00:44:45.811Z,4.57
2018-07-09T00:47:20.609Z,4.90
2018-07-09T00:49:55.129Z,4.80
2018-07-09T00:52:30.546Z,4.20
2018-07-09T00:55:05.400Z,5.50
2018-07-09T00:57:39.988Z,6.00
2018-07-09T01:00:14.700Z,4.80
2018-07-09T01:02:49.537Z,5.03
2018-07-09T01:05:24.219Z,5.53
2018-07-09T01:07:59.321Z,5.40
2018-07-09T01:10:49.965Z,4.50
2018-07-09T01:13:40.777Z,4.20
2018-07-09T01:16:15.390Z,4.90
2018-07-09T01:18:50.229Z,4.47
2018-07-09T01:21:26.247Z,4.73
2018-07-09T01:24:01.184Z,5.40
2018-07-09T01:26:36.466Z,4.90
2018-07-09T01:29:11.674Z,5.37
2018-07-09T01:31:46.502Z,5.10
2018-07-09T01:34:21.100Z,4.53
2018-07-09T01:36:55.882Z,4.40
2018-07-09T01:39:30.885Z,4.33
2018-07-09T01:42:05.295Z,4.03
2018-07-09T01:44:40.559Z,4.13
2018-07-09T01:47:14.998Z,3.97
2018-07-09T01:49:49.958Z,4.90
2018-07-09T01:52:24.761Z,3.93
2018-07-09T01:55:00.286Z,4.47
2018-07-09T01:57:34.478Z,3.80
2018-07-09T02:00:09.725Z,4.30
2018-07-09T02:02:44.244Z,4.67
2018-07-09T02:05:19.257Z,3.93
2018-07-09T02:07:54.044Z,3.53
2018-07-09T02:10:28.842Z,3.63
2018-07-09T02:13:03.859Z,3.63
2018-07-09T02:15:37.872Z,4.30
2018-07-09T02:18:12.117Z,4.77
2018-07-09T02:20:47.083Z,4.37
2018-07-09T02:23:22.349Z,5.20
2018-07-09T02:25:57.190Z,4.00
2018-07-09T02:28:32.169Z,4.33
2018-07-09T02:31:07.144Z,3.90
2018-07-09T02:33:42.288Z,4.10
2018-07-09T02:36:17.550Z,3.87
2018-07-09T02:38:52.102Z,3.97
2018-07-09T02:41:27.004Z,4.10
2018-07-09T02:44:01.475Z,3.90
2018-07-09T02:46:36.207Z,3.80
2018-07-09T02:49:11.079Z,3.60
2018-07-09T02:51:45.753Z,3.40
2018-07-09T02:54:20.469Z,3.90
2018-07-09T02:56:55.039Z,3.63
2018-07-09T02:59:30.089Z,4.30
2018-07-09T03:02:04.812Z,3.73
2018-07-09T03:04:39.707Z,3.57
2018-07-09T03:07:14.368Z,3.53
2018-07-09T03:09:49.774Z,3.40
2018-07-09T03:12:24.084Z,3.50
2018-07-09T03:14:59.750Z,4.17
2018-07-09T03:17:34.800Z,3.43
2018-07-09T03:20:09.435Z,3.33
2018-07-09T03:22:44.686Z,4.20
2018-07-09T03:25:19.474Z,3.80
2018-07-09T03:27:54.530Z,4.13
2018-07-09T03:30:29.784Z,4.90
2018-07-09T03:33:04.892Z,4.13
2018-07-09T03:35:39.840Z,3.37
2018-07-09T03:38:14.553Z,3.00
2018-07-09T03:40:49.211Z,4.43
2018-07-09T03:43:24.101Z,3.70
2018-07-09T03:45:58.964Z,4.00
2018-07-09T03:48:34.105Z,4.30
2018-07-09T03:51:09.053Z,3.57
2018-07-09T03:53:43.671Z,4.20
2018-07-09T03:56:18.182Z,3.93
2018-07-09T03:58:52.999Z,4.77
2018-07-09T04:01:28.163Z,4.20
2018-07-09T04:04:02.812Z,4.10
2018-07-09T04:06:37.813Z,4.80
2018-07-09T04:09:12.309Z,4.63
2018-07-09T04:11:47.288Z,4.03
2018-07-09T04:14:22.012Z,4.80
2018-07-09T04:16:56.827Z,4.00
2018-07-09T04:19:31.733Z,3.67
2018-07-09T04:22:06.814Z,4.50
2018-07-09T04:24:41.508Z,5.07
2018-07-09T04:27:16.397Z,4.60
2018-07-09T04:29:51.339Z,4.17
2018-07-09T04:32:25.652Z,4.90
2018-07-09T04:34:59.735Z,4.67
2018-07-09T04:37:34.537Z,4.27
2018-07-09T04:40:09.255Z,4.50
2018-07-09T04:42:44.200Z,4.43
2018-07-09T04:45:19.609Z,4.30
2018-07-09T04:47:54.539Z,4.20
2018-07-09T04:50:29.105Z,4.77
2018-07-09T04:53:04.187Z,3.77
2018-07-09T04:55:39.129Z,3.90
2018-07-09T04:58:13.576Z,3.83
2018-07-09T05:00:48.337Z,3.87
2018-07-09T05:03:22.766Z,4.47
2018-07-09T05:05:57.861Z,4.13
2018-07-09T05:08:32.673Z,4.60
2018-07-09T05:11:07.033Z,4.27
2018-07-09T05:13:42.016Z,4.40
2018-07-09T05:16:16.712Z,4.50
2018-07-09T05:18:51.430Z,4.07
2018-07-09T05:21:26.182Z,4.80
2018-07-09T05:24:01.010Z,4.57
2018-07-09T05:26:35.751Z,4.17
2018-07-09T05:29:10.792Z,4.50
2018-07-09T05:31:45.325Z,4.20
2018-07-09T05:34:20.328Z,3.67
2018-07-09T05:36:55.460Z,4.13
2018-07-09T05:39:30.311Z,4.43
2018-07-09T05:42:05.040Z,4.80
2018-07-09T05:44:39.687Z,4.53
2018-07-09T05:47:14.855Z,4.37
2018-07-09T05:49:50.260Z,4.10
2018-07-09T05:52:25.388Z,4.93
2018-07-09T05:54:59.653Z,4.60
2018-07-09T05:57:34.657Z,4.47
2018-07-09T06:00:09.425Z,4.50
2018-07-09T06:02:44.454Z,4.30
2018-07-09T06:05:19.366Z,4.30
2018-07-09T06:07:54.552Z,4.30
2018-07-09T06:10:28.679Z,5.27
2018-07-09T06:13:03.759Z,5.00
2018-07-09T06:15:38.444Z,4.37
2018-07-09T06:18:13.477Z,4.30
2018-07-09T06:20:48.525Z,5.17
2018-07-09T06:23:23.131Z,4.40
2018-07-09T06:25:57.874Z,4.93
2018-07-09T06:28:32.774Z,4.60
2018-07-09T06:31:07.169Z,4.73
2018-07-09T06:33:42.013Z,4.43
2018-07-09T06:36:16.684Z,3.60
2018-07-09T06:38:51.294Z,3.80
2018-07-09T06:41:26.234Z,3.80
2018-07-09T06:44:01.486Z,4.20
2018-07-09T06:46:35.730Z,4.13
2018-07-09T06:49:10.634Z,4.63
2018-07-09T06:51:45.256Z,3.77
2018-07-09T06:54:20.331Z,4.30
2018-07-09T06:56:54.967Z,3.93
2018-07-09T06:59:30.095Z,3.10
2018-07-09T07:02:05.118Z,3.60
2018-07-09T07:04:40.064Z,3.40
2018-07-09T07:07:15.431Z,2.97
2018-07-09T07:09:51.020Z,3.03
2018-07-09T07:12:25.670Z,3.17
2018-07-09T07:15:00.282Z,4.47
2018-07-09T07:17:35.046Z,3.50
2018-07-09T07:20:10.320Z,3.17
2018-07-09T07:22:45.008Z,2.90
2018-07-09T07:25:19.451Z,2.90
2018-07-09T07:27:54.080Z,3.20
2018-07-09T07:30:28.448Z,3.27
2018-07-09T07:33:03.350Z,3.20
2018-07-09T07:35:38.206Z,3.87
2018-07-09T07:38:12.835Z,2.83
2018-07-09T07:40:47.758Z,3.93
2018-07-09T07:43:22.459Z,3.40
2018-07-09T07:45:57.281Z,3.80
2018-07-09T07:48:32.186Z,3.27
2018-07-09T07:51:06.846Z,3.00
2018-07-09T07:53:41.742Z,3.80
2018-07-09T07:56:16.494Z,3.43
2018-07-09T07:58:51.712Z,3.97
2018-07-09T08:01:25.684Z,3.30
2018-07-09T08:04:00.965Z,4.13
2018-07-09T08:06:35.930Z,3.70
2018-07-09T08:09:10.450Z,3.50
2018-07-09T08:11:49.132Z,3.00
2018-07-09T08:14:20.274Z,4.20
2018-07-09T08:16:55.185Z,4.00
2018-07-09T08:19:30.027Z,4.30
2018-07-09T08:22:05.393Z,3.80
2018-07-09T08:24:40.074Z,4.17
2018-07-09T08:27:15.109Z,3.63
2018-07-09T08:29:49.369Z,3.77
2018-07-09T08:32:23.822Z,4.23
2018-07-09T08:35:04.446Z,4.30
2018-07-09T08:37:39.493Z,4.17
2018-07-09T08:40:14.430Z,3.53
2018-07-09T08:42:49.273Z,4.43
2018-07-09T08:45:24.088Z,4.87
2018-07-09T08:47:58.870Z,4.00
2018-07-09T08:50:34.060Z,3.70
2018-07-09T08:53:09.090Z,4.30
2018-07-09T08:55:43.865Z,3.83
2018-07-09T08:58:18.955Z,3.67
2018-07-09T09:00:53.414Z,3.90
2018-07-09T09:03:28.075Z,3.70
2018-07-09T09:06:02.899Z,3.57
2018-07-09T09:08:37.614Z,4.33
2018-07-09T09:11:12.497Z,3.73
2018-07-09T09:13:47.286Z,3.67
2018-07-09T09:16:22.178Z,3.90
2018-07-09T09:18:57.076Z,3.93
2018-07-09T09:21:32.238Z,3.17
2018-07-09T09:24:07.493Z,3.47
2018-07-09T09:26:42.197Z,3.63
2018-07-09T09:29:17.905Z,4.00
2018-07-09T09:31:52.187Z,3.93
2018-07-09T09:34:26.979Z,3.97
2018-07-09T09:37:01.925Z,2.83
2018-07-09T09:39:36.611Z,3.67
2018-07-09T09:42:11.290Z,3.70
2018-07-09T09:44:46.302Z,2.73
2018-07-09T09:47:21.526Z,3.13
2018-07-09T09:49:56.402Z,2.50
2018-07-09T09:52:31.341Z,2.80
2018-07-09T09:55:06.910Z,2.70
2018-07-09T09:57:41.393Z,3.60
2018-07-09T10:00:16.591Z,3.00
2018-07-09T10:02:51.290Z,3.10
2018-07-09T10:05:26.054Z,3.00
2018-07-09T10:08:00.862Z,2.80
2018-07-09T10:10:35.718Z,3.40
2018-07-09T10:13:10.152Z,3.30
2018-07-09T10:15:44.978Z,3.40
2018-07-09T10:18:20.879Z,3.37
2018-07-09T10:20:56.296Z,3.33
2018-07-09T10:23:30.901Z,3.30
2018-07-09T10:26:05.886Z,3.73
2018-07-09T10:28:40.846Z,3.30
2018-07-09T10:31:15.798Z,2.80
2018-07-09T10:33:50.484Z,4.83
2018-07-09T10:36:25.146Z,3.97
2018-07-09T10:38:59.707Z,3.60
2018-07-09T10:41:34.586Z,4.20
2018-07-09T10:44:11.897Z,4.40
2018-07-09T10:46:46.459Z,3.77
2018-07-09T10:49:21.393Z,3.10
2018-07-09T10:51:55.578Z,5.83
2018-07-09T10:54:30.762Z,5.20
2018-07-09T10:57:05.477Z,3.50
2018-07-09T10:59:40.293Z,3.30
2018-07-09T11:02:14.916Z,3.17
2018-07-09T11:04:50.086Z,3.20
2018-07-09T11:07:25.005Z,3.50
2018-07-09T11:09:59.940Z,3.57
2018-07-09T11:12:34.822Z,3.37
2018-07-09T11:15:09.390Z,2.60
2018-07-09T11:17:44.329Z,3.83
2018-07-09T11:20:19.281Z,3.60
2018-07-09T11:22:54.360Z,3.67
2018-07-09T11:25:28.836Z,3.93
2018-07-09T11:28:03.724Z,3.70
2018-07-09T11:30:38.710Z,3.87
2018-07-09T11:33:13.596Z,3.60
2018-07-09T11:35:48.601Z,3.53
2018-07-09T11:38:23.472Z,3.73
2018-07-09T11:40:58.541Z,4.47
2018-07-09T11:43:33.105Z,3.63
2018-07-09T11:46:08.601Z,3.67
2018-07-09T11:48:43.734Z,4.10
2018-07-09T11:51:18.007Z,3.03
2018-07-09T11:53:53.046Z,3.70
2018-07-09T11:56:28.359Z,3.67
2018-07-09T11:59:03.223Z,3.90
2018-07-09T12:01:38.733Z,3.70
2018-07-09T12:04:13.430Z,3.70
2018-07-09T12:06:47.599Z,3.20
2018-07-09T12:09:22.325Z,3.20
2018-07-09T12:11:57.445Z,4.30
2018-07-09T12:14:31.616Z,3.77
2018-07-09T12:17:06.816Z,3.97
2018-07-09T12:19:41.640Z,3.70
2018-07-09T12:22:16.348Z,3.30
2018-07-09T12:24:50.667Z,2.70
2018-07-09T12:27:25.876Z,3.17
2018-07-09T12:30:00.569Z,3.83
2018-07-09T12:32:35.402Z,3.40
2018-07-09T12:35:10.236Z,3.73
2018-07-09T12:37:45.242Z,3.97
2018-07-09T12:40:20.051Z,4.00
2018-07-09T12:42:55.077Z,3.93
2018-07-09T12:45:29.716Z,4.37
2018-07-09T12:48:05.117Z,4.00
2018-07-09T12:50:39.803Z,4.27
2018-07-09T12:53:14.538Z,3.53
2018-07-09T12:55:49.305Z,3.70
2018-07-09T12:58:23.668Z,3.80
2018-07-09T13:00:58.530Z,4.23
2018-07-09T13:03:33.672Z,3.57
2018-07-09T13:06:08.667Z,3.30
2018-07-09T13:08:43.389Z,3.90
2018-07-09T13:11:18.096Z,3.47
2018-07-09T13:13:52.689Z,4.20
2018-07-09T13:16:27.256Z,3.60
2018-07-09T13:19:01.930Z,4.10
2018-07-09T13:21:36.426Z,3.63
2018-07-09T13:24:11.223Z,3.53
2018-07-09T13:26:46.138Z,4.00
2018-07-09T13:29:21.547Z,3.00
2018-07-09T13:31:55.954Z,3.73
2018-07-09T13:34:31.143Z,4.30
2018-07-09T13:37:05.772Z,4.70
2018-07-09T13:39:40.345Z,4.57
2018-07-09T13:42:15.151Z,3.50
2018-07-09T13:44:50.651Z,3.60
2018-07-09T13:47:25.224Z,3.47
2018-07-09T13:50:00.639Z,4.17
2018-07-09T13:52:35.863Z,3.60
2018-07-09T13:55:10.913Z,4.30
2018-07-09T13:57:45.755Z,4.50
2018-07-09T14:00:20.770Z,3.50
2018-07-09T14:02:55.686Z,3.70
2018-07-09T14:05:30.882Z,3.37
2018-07-09T14:08:05.853Z,3.30
2018-07-09T14:10:40.760Z,3.70
2018-07-09T14:13:15.565Z,3.90
2018-07-09T14:15:50.061Z,4.30
2018-07-09T14:18:24.992Z,3.50
2018-07-09T14:20:59.938Z,3.93
2018-07-09T14:23:34.775Z,4.00
2018-07-09T14:26:09.877Z,3.43
2018-07-09T14:28:44.593Z,3.20
2018-07-09T14:31:26.197Z,3.40
2018-07-09T14:34:00.388Z,3.90
2018-07-09T14:36:35.453Z,2.93
2018-07-09T14:39:10.399Z,3.33
2018-07-09T14:41:45.324Z,4.10
2018-07-09T14:44:20.266Z,3.77
2018-07-09T14:46:55.274Z,4.47
2018-07-09T14:49:29.701Z,3.97
2018-07-09T14:52:05.429Z,3.80
2018-07-09T14:54:40.062Z,3.70
2018-07-09T14:57:15.117Z,4.00
2018-07-09T14:59:49.671Z,3.53
2018-07-09T15:02:24.624Z,3.90
2018-07-09T15:04:59.360Z,4.60
2018-07-09T15:07:34.565Z,4.10
2018-07-09T15:10:09.164Z,3.67
2018-07-09T15:12:44.482Z,3.83
2018-07-09T15:15:19.269Z,3.57
2018-07-09T15:17:54.500Z,4.50
2018-07-09T15:20:29.558Z,3.70
2018-07-09T15:23:04.810Z,3.10
2018-07-09T15:25:39.819Z,2.80
2018-07-09T15:28:14.741Z,2.90
2018-07-09T15:30:50.021Z,3.30
2018-07-09T15:33:24.782Z,2.90
2018-07-09T15:35:59.711Z,3.40
2018-07-09T15:38:34.899Z,3.50
2018-07-09T15:41:09.853Z,3.07
2018-07-09T15:43:59.734Z,3.20
2018-07-09T15:46:33.965Z,3.30
2018-07-09T15:49:09.105Z,4.07
2018-07-09T15:51:43.512Z,3.27
2018-07-09T15:54:18.409Z,3.40
2018-07-09T15:56:53.202Z,3.17
2018-07-09T15:59:28.089Z,4.30
2018-07-09T16:02:02.823Z,3.90
2018-07-09T16:04:37.606Z,3.80
2018-07-09T16:07:12.593Z,3.20
2018-07-09T16:09:47.330Z,3.63
2018-07-09T16:12:22.451Z,2.70
2018-07-09T16:14:57.215Z,3.10
2018-07-09T16:17:32.106Z,2.87
2018-07-09T16:20:07.201Z,3.13
2018-07-09T16:22:41.895Z,3.20
2018-07-09T16:25:17.110Z,3.63
2018-07-09T16:27:51.790Z,4.20
2018-07-09T16:30:27.226Z,2.73
2018-07-09T16:33:01.606Z,3.47
2018-07-09T16:35:36.647Z,3.80
2018-07-09T16:38:11.650Z,3.50
2018-07-09T16:40:46.779Z,3.10
2018-07-09T16:43:22.092Z,3.40
2018-07-09T16:45:56.933Z,3.23
2018-07-09T16:48:31.492Z,3.23
2018-07-09T16:51:06.287Z,3.47
2018-07-09T16:53:41.058Z,2.80
2018-07-09T16:56:16.422Z,2.70
2018-07-09T16:58:51.017Z,3.27
2018-07-09T17:01:27.003Z,3.03
2018-07-09T17:04:01.677Z,2.63
2018-07-09T17:06:36.434Z,3.07
2018-07-09T17:09:11.089Z,3.80
2018-07-09T17:11:46.079Z,2.70
2018-07-09T17:14:20.876Z,3.37
2018-07-09T17:16:56.448Z,2.67
2018-07-09T17:19:31.440Z,3.07
2018-07-09T17:22:06.271Z,3.80
2018-07-09T17:24:41.268Z,3.00
2018-07-09T17:27:15.794Z,3.63
2018-07-09T17:29:50.428Z,3.67
2018-07-09T17:32:25.301Z,3.20
2018-07-09T17:34:59.971Z,4.90
2018-07-09T17:37:34.684Z,4.80
2018-07-09T17:40:10.458Z,4.53
2018-07-09T17:42:45.332Z,3.73
2018-07-09T17:45:20.943Z,4.00
2018-07-09T17:47:56.272Z,3.80
2018-07-09T17:50:31.391Z,3.80
2018-07-09T17:53:06.365Z,4.00
2018-07-09T17:55:40.937Z,3.60
2018-07-09T17:58:15.646Z,3.63
2018-07-09T18:00:50.656Z,3.70
2018-07-09T18:03:25.370Z,3.90
2018-07-09T18:06:00.069Z,3.73
2018-07-09T18:08:35.042Z,4.10
2018-07-09T18:11:09.757Z,3.87
2018-07-09T18:13:44.744Z,4.10
2018-07-09T18:16:19.609Z,4.33
2018-07-09T18:18:54.288Z,3.77
2018-07-09T18:21:29.057Z,3.40
2018-07-09T18:24:03.908Z,3.80
2018-07-09T18:26:38.354Z,4.57
2018-07-09T18:29:13.195Z,3.70
2018-07-09T18:31:47.857Z,4.50
2018-07-09T18:34:22.508Z,5.07
2018-07-09T18:36:57.080Z,5.40
2018-07-09T18:39:32.225Z,4.40
2018-07-09T18:42:07.064Z,3.60
2018-07-09T18:44:41.490Z,4.80
2018-07-09T18:47:16.144Z,3.60
2018-07-09T18:49:57.011Z,6.23
2018-07-09T18:52:31.210Z,6.60
2018-07-09T18:55:05.733Z,8.07
2018-07-09T18:57:40.631Z,6.07
2018-07-09T19:00:15.697Z,5.27
2018-07-09T19:02:50.584Z,5.10
2018-07-09T19:08:26.007Z,4.53
2018-07-09T19:11:00.598Z,4.13
2018-07-09T19:13:36.115Z,5.13
2018-07-09T19:16:12.892Z,4.20
2018-07-09T19:19:05.393Z,4.40
2018-07-09T19:21:58.002Z,5.27
2018-07-09T19:24:31.770Z,4.63
2018-07-09T19:27:05.280Z,5.07
2018-07-09T19:29:38.013Z,4.23
2018-07-09T19:32:10.936Z,4.80
2018-07-09T19:34:46.602Z,5.00
2018-07-09T19:37:19.268Z,4.40
2018-07-09T19:39:51.925Z,4.23
2018-07-09T19:42:25.437Z,4.50
2018-07-09T19:44:59.267Z,4.87
2018-07-09T19:47:32.596Z,5.47
2018-07-09T19:50:06.563Z,5.30
2018-07-09T19:52:40.349Z,4.70
2018-07-09T19:55:13.300Z,4.90
2018-07-09T19:57:46.781Z,4.50
2018-07-09T20:00:19.518Z,4.10
2018-07-09T20:02:52.825Z,3.70
2018-07-09T20:05:26.192Z,4.40
2018-07-09T20:07:59.356Z,4.40
2018-07-09T20:10:38.226Z,3.80
2018-07-09T20:13:17.519Z,4.50
2018-07-09T20:15:56.005Z,5.10
2018-07-09T20:18:29.035Z,5.30
2018-07-09T20:21:02.039Z,5.40
2018-07-09T20:23:35.273Z,4.90
2018-07-09T20:26:08.696Z,5.03
2018-07-09T20:28:41.601Z,5.17
2018-07-09T20:31:14.800Z,5.23
2018-07-09T20:33:48.521Z,4.40
2018-07-09T20:36:22.142Z,5.13
2018-07-09T20:38:56.469Z,5.43
2018-07-09T20:41:29.676Z,5.50
2018-07-09T20:44:03.270Z,6.27
2018-07-09T20:46:36.567Z,6.33
2018-07-09T20:49:10.141Z,4.80
2018-07-09T20:51:42.724Z,5.57
2018-07-09T20:54:15.308Z,5.63
2018-07-09T20:56:49.126Z,5.00
2018-07-09T20:59:22.735Z,5.60
2018-07-09T21:01:56.129Z,5.57
2018-07-09T21:04:29.842Z,6.50
2018-07-09T21:07:03.791Z,5.23
2018-07-09T21:09:36.901Z,5.97
2018-07-09T21:12:09.788Z,6.10
2018-07-09T21:14:43.206Z,5.37
2018-07-09T21:17:16.287Z,6.30
2018-07-09T21:19:49.744Z,6.60
2018-07-09T21:22:22.804Z,5.67
2018-07-09T21:24:55.350Z,5.90
2018-07-09T21:27:28.133Z,6.20
2018-07-09T21:30:01.599Z,6.40
2018-07-09T21:32:34.464Z,5.90
2018-07-09T21:35:07.253Z,5.97
2018-07-09T21:37:40.255Z,6.13
2018-07-09T21:40:13.670Z,6.40
2018-07-09T21:42:46.681Z,6.77
2018-07-09T21:45:19.448Z,7.30
2018-07-09T21:47:59.219Z,6.67
2018-07-09T21:50:25.798Z,6.80
2018-07-09T21:53:05.297Z,6.93
2018-07-09T21:55:38.140Z,6.53
2018-07-09T21:58:11.693Z,5.87
2018-07-09T22:00:44.355Z,5.90
2018-07-09T22:03:18.151Z,6.53
2018-07-09T22:05:51.770Z,5.67
2018-07-09T22:08:24.541Z,6.90
2018-07-09T22:10:57.128Z,6.23
2018-07-09T22:13:29.897Z,5.77
2018-07-09T22:16:03.367Z,5.90
2018-07-09T22:18:36.179Z,5.30
2018-07-09T22:21:09.471Z,5.60
2018-07-09T22:23:42.152Z,5.87
2018-07-09T22:26:14.757Z,5.77
2018-07-09T22:28:47.548Z,6.47
2018-07-09T22:31:21.955Z,6.30
2018-07-09T22:33:56.992Z,7.67
2018-07-09T22:36:31.559Z,6.53
2018-07-09T22:39:06.252Z,6.00
2018-07-09T22:41:41.247Z,6.77
2018-07-09T22:44:18.947Z,6.10
2018-07-09T22:46:53.598Z,6.03
2018-07-09T22:49:28.573Z,6.00
2018-07-09T22:52:03.584Z,6.30
2018-07-09T22:54:38.689Z,5.50
2018-07-09T22:57:13.971Z,5.43
2018-07-09T22:59:48.774Z,6.40
2018-07-09T23:02:23.735Z,6.43
2018-07-09T23:04:58.596Z,6.23
2018-07-09T23:07:37.495Z,6.10
2018-07-09T23:10:30.310Z,6.00
2018-07-09T23:17:04.063Z,7.43
2018-07-09T23:22:02.211Z,7.00
2018-07-09T23:24:35.275Z,8.33
2018-07-09T23:27:08.737Z,7.33
2018-07-09T23:29:42.447Z,7.53
2018-07-09T23:32:15.840Z,6.70
2018-07-09T23:34:49.346Z,6.17
2018-07-09T23:37:21.901Z,7.33
2018-07-09T23:39:55.613Z,5.80
2018-07-09T23:42:28.892Z,7.30
2018-07-09T23:45:01.528Z,6.97
2018-07-09T23:47:35.343Z,6.80
2018-07-09T23:50:08.691Z,6.90
2018-07-09T23:52:41.983Z,7.07
2018-07-09T23:55:15.693Z,6.40
